Time;durP1;ratioP1;P1;durP2;ratioP2;P2;SDS_P1;SDS_P2;PMS_P1;PMS_P2;Temp;Humidity;BMP_temperature;BMP_pressure;BME280_temperature;BME280_humidity;BME280_pressure;Samples;Min_cycle;Max_cycle;Signal;HPM_P1;HPM_P2
2023/06/30 00:08:37;;;;;;;6.05;3.10;;;20.00;80.30;;;;;;5030728;28;20049;-80
2023/06/30 00:11:04;;;;;;;6.75;3.25;;;20.00;80.20;;;;;;5052002;28;20437;-79
2023/06/30 00:13:29;;;;;;;5.32;3.00;;;20.00;80.20;;;;;;5053018;28;20060;-79
2023/06/30 00:15:56;;;;;;;6.00;3.20;;;20.00;80.30;;;;;;5035490;28;20029;-79
2023/06/30 00:18:21;;;;;;;4.82;3.22;;;20.00;80.20;;;;;;5068513;28;20029;-79
2023/06/30 00:20:47;;;;;;;6.07;3.50;;;19.90;80.20;;;;;;5035510;28;20026;-79
2023/06/30 00:23:13;;;;;;;5.32;3.00;;;19.90;80.20;;;;;;5051930;28;20014;-80
2023/06/30 00:25:39;;;;;;;8.32;3.50;;;19.90;80.20;;;;;;5052847;28;20028;-79
2023/06/30 00:28:05;;;;;;;8.93;3.15;;;19.90;79.90;;;;;;5051941;28;20029;-80
2023/06/30 00:30:30;;;;;;;6.82;3.13;;;20.00;79.70;;;;;;5052949;28;20247;-79
2023/06/30 00:32:56;;;;;;;6.07;3.08;;;19.90;79.40;;;;;;5051911;28;20047;-79
2023/06/30 00:35:22;;;;;;;7.15;2.83;;;19.90;79.40;;;;;;5051704;28;20033;-79
2023/06/30 00:37:47;;;;;;;5.22;2.88;;;19.80;79.20;;;;;;5051708;28;20041;-79
2023/06/30 00:40:14;;;;;;;7.13;2.70;;;19.80;79.30;;;;;;5035249;28;20034;-78
2023/06/30 00:42:40;;;;;;;7.70;2.70;;;19.80;79.40;;;;;;5035401;28;20056;-79
2023/06/30 00:45:06;;;;;;;7.93;3.17;;;19.80;79.40;;;;;;5051669;28;20017;-79
2023/06/30 00:47:32;;;;;;;8.25;2.80;;;19.80;79.30;;;;;;5051691;28;20059;-79
2023/06/30 00:49:58;;;;;;;4.95;2.53;;;19.70;79.10;;;;;;5051761;28;20037;-78
2023/06/30 00:52:24;;;;;;;8.48;2.60;;;19.70;79.10;;;;;;5051693;28;20033;-79
2023/06/30 00:54:50;;;;;;;7.15;3.08;;;19.70;78.90;;;;;;5035155;28;20025;-79
2023/06/30 00:57:16;;;;;;;5.35;2.50;;;19.70;78.80;;;;;;5051542;28;20033;-78
2023/06/30 00:59:41;;;;;;;7.00;2.38;;;19.70;78.70;;;;;;5051592;28;20473;-79
2023/06/30 01:02:18;;;;;;;5.47;2.60;;;19.60;78.50;;;;;;5053323;28;20031;-80
2023/06/30 01:04:59;;;;;;;7.03;2.42;;;19.60;78.50;;;;;;5056201;28;20037;-79
2023/06/30 01:07:39;;;;;;;5.43;2.38;;;19.60;78.40;;;;;;5056077;28;20036;-79
2023/06/30 01:10:13;;;;;;;8.25;2.58;;;19.50;78.40;;;;;;5054769;28;20045;-79
2023/06/30 01:12:40;;;;;;;5.63;2.42;;;19.50;78.50;;;;;;5054907;28;20029;-79
2023/06/30 01:15:07;;;;;;;7.20;2.47;;;19.40;78.70;;;;;;5054944;28;20026;-79
2023/06/30 01:17:34;;;;;;;6.18;2.50;;;19.40;79.00;;;;;;5071434;28;20021;-79
2023/06/30 01:20:00;;;;;;;8.55;2.58;;;19.30;79.00;;;;;;5054857;28;20094;-79
2023/06/30 01:22:31;;;;;;;8.15;2.80;;;19.30;79.10;;;;;;5055744;28;20021;-79
2023/06/30 01:25:03;;;;;;;5.72;2.17;;;19.30;79.00;;;;;;5071411;28;20033;-78
2023/06/30 01:27:30;;;;;;;4.15;2.17;;;19.30;78.70;;;;;;5055674;28;20022;-79
2023/06/30 01:29:55;;;;;;;5.25;2.00;;;19.30;78.70;;;;;;5054611;28;20029;-79
2023/06/30 01:32:21;;;;;;;5.28;2.13;;;19.30;78.50;;;;;;5071190;28;20042;-79
2023/06/30 01:34:48;;;;;;;7.97;3.15;;;19.30;78.40;;;;;;5054484;28;20053;-78
2023/06/30 01:37:14;;;;;;;6.88;2.53;;;19.30;78.30;;;;;;5054438;28;20025;-78
2023/06/30 01:39:40;;;;;;;7.03;2.30;;;19.30;79.10;;;;;;5055402;28;20028;-78
2023/06/30 01:42:07;;;;;;;6.60;2.00;;;19.30;78.00;;;;;;5054394;28;20026;-79
2023/06/30 01:44:35;;;;;;;7.93;2.20;;;19.20;78.10;;;;;;5055315;28;20025;-79
2023/06/30 01:47:02;;;;;;;4.80;2.00;;;19.20;78.20;;;;;;5054379;28;20033;-79
2023/06/30 01:49:28;;;;;;;7.43;2.13;;;19.10;78.20;;;;;;5054353;28;20025;-79
2023/06/30 01:51:54;;;;;;;5.97;2.38;;;19.10;78.20;;;;;;5054208;28;20029;-79
2023/06/30 01:54:19;;;;;;;4.20;1.90;;;19.10;78.20;;;;;;5054161;28;20036;-79
2023/06/30 01:56:49;;;;;;;8.05;2.40;;;19.10;78.30;;;;;;5055016;28;20036;-79
2023/06/30 01:59:16;;;;;;;5.20;2.15;;;19.10;78.40;;;;;;5054102;28;20032;-79
2023/06/30 02:01:42;;;;;;;9.20;2.30;;;19.00;78.40;;;;;;5054983;28;20034;-79
2023/06/30 02:04:09;;;;;;;6.45;2.33;;;19.00;78.30;;;;;;5054179;28;20034;-79
2023/06/30 02:06:35;;;;;;;4.70;2.63;;;18.90;78.30;;;;;;5054899;28;20021;-78
2023/06/30 02:09:00;;;;;;;9.82;2.58;;;18.80;78.40;;;;;;5054633;28;20045;-80
2023/06/30 02:11:26;;;;;;;5.82;2.53;;;18.70;78.30;;;;;;5053940;28;20033;-79
2023/06/30 02:13:51;;;;;;;5.28;2.25;;;18.70;78.50;;;;;;5053670;28;20033;-79
2023/06/30 02:16:17;;;;;;;7.13;2.55;;;18.60;78.70;;;;;;5054737;28;20018;-80
2023/06/30 02:18:43;;;;;;;4.70;2.22;;;18.60;78.70;;;;;;5053627;28;20496;-79
2023/06/30 02:21:08;;;;;;;6.05;2.17;;;18.60;78.70;;;;;;5053676;28;20060;-80
2023/06/30 02:23:34;;;;;;;5.35;2.38;;;18.60;78.70;;;;;;5053546;28;20026;-79
2023/06/30 02:26:00;;;;;;;7.18;2.45;;;18.50;78.70;;;;;;5037136;28;20021;-79
2023/06/30 02:28:25;;;;;;;4.70;2.08;;;18.50;78.80;;;;;;5053690;28;20037;-78
2023/06/30 02:30:51;;;;;;;5.95;2.38;;;18.50;78.80;;;;;;5054560;28;20067;-78
2023/06/30 02:33:17;;;;;;;3.15;2.30;;;18.50;78.80;;;;;;5053298;28;20052;-79
2023/06/30 02:35:43;;;;;;;5.88;2.53;;;18.50;78.70;;;;;;5053629;28;20031;-78
2023/06/30 02:38:09;;;;;;;6.03;2.30;;;18.40;78.60;;;;;;5054383;28;20034;-79
2023/06/30 02:40:35;;;;;;;5.70;2.00;;;18.40;78.50;;;;;;5053303;28;20026;-79
2023/06/30 02:43:00;;;;;;;8.20;2.40;;;18.40;78.60;;;;;;5053340;28;20026;-79
2023/06/30 02:45:26;;;;;;;6.43;2.17;;;18.30;78.50;;;;;;5053342;28;20025;-79
2023/06/30 02:47:52;;;;;;;6.72;2.50;;;18.20;78.60;;;;;;5053096;28;20038;-79
2023/06/30 02:50:22;;;;;;;5.38;2.45;;;18.10;78.70;;;;;;5036766;28;20471;-78
2023/06/30 02:52:47;;;;;;;4.47;1.92;;;18.00;78.90;;;;;;5053610;28;20032;-79
2023/06/30 02:55:13;;;;;;;5.53;2.33;;;18.00;78.90;;;;;;5053018;28;20473;-79
2023/06/30 02:57:38;;;;;;;7.63;2.40;;;18.00;78.90;;;;;;5053852;28;20034;-79
2023/06/30 03:00:04;;;;;;;5.63;2.53;;;18.00;79.00;;;;;;5053890;28;20025;-78
2023/06/30 03:02:30;;;;;;;5.82;2.17;;;18.00;78.90;;;;;;5036469;28;20045;-78
2023/06/30 03:04:56;;;;;;;4.43;1.95;;;18.00;78.70;;;;;;5052795;28;20366;-78
2023/06/30 03:07:21;;;;;;;6.45;2.15;;;17.80;78.70;;;;;;5052770;28;20034;-79
2023/06/30 03:09:47;;;;;;;6.20;2.13;;;17.70;78.90;;;;;;5053556;28;20042;-79
2023/06/30 03:12:12;;;;;;;6.18;2.20;;;17.60;79.10;;;;;;5052686;28;20034;-79
2023/06/30 03:14:39;;;;;;;7.00;2.28;;;17.60;79.30;;;;;;5069299;28;20021;-78
2023/06/30 03:17:05;;;;;;;6.95;2.40;;;17.50;79.50;;;;;;5053532;28;20028;-79
2023/06/30 03:19:30;;;;;;;5.75;2.25;;;17.50;79.60;;;;;;5052636;28;20021;-79
2023/06/30 03:21:56;;;;;;;6.10;2.72;;;17.50;79.50;;;;;;5052571;28;20042;-78
2023/06/30 03:24:22;;;;;;;5.78;2.38;;;17.50;79.60;;;;;;5052216;28;20052;-79
2023/06/30 03:26:47;;;;;;;6.05;2.80;;;17.50;80.30;;;;;;5052546;28;20445;-78
2023/06/30 03:29:13;;;;;;;5.68;2.70;;;17.50;79.70;;;;;;5052526;28;20034;-78
2023/06/30 03:31:39;;;;;;;5.57;2.50;;;17.40;79.80;;;;;;5053425;28;20068;-78
2023/06/30 03:34:04;;;;;;;7.07;3.08;;;17.40;79.90;;;;;;5035800;28;20087;-79
2023/06/30 03:36:30;;;;;;;7.70;3.20;;;17.30;80.10;;;;;;5052414;28;20048;-79
2023/06/30 03:38:55;;;;;;;7.07;3.15;;;17.30;80.10;;;;;;5035777;28;20040;-79
2023/06/30 03:41:21;;;;;;;5.03;2.65;;;17.30;80.20;;;;;;5052416;28;20028;-79
2023/06/30 03:43:47;;;;;;;4.03;2.30;;;17.30;80.20;;;;;;5052321;28;20381;-78
2023/06/30 03:46:15;;;;;;;6.95;3.17;;;17.40;80.20;;;;;;5053240;28;20026;-79
2023/06/30 03:48:40;;;;;;;8.82;3.03;;;17.40;80.10;;;;;;5053211;28;20171;-78
2023/06/30 03:51:06;;;;;;;6.75;2.47;;;17.40;80.00;;;;;;5052244;28;20033;-79
2023/06/30 03:53:32;;;;;;;5.07;2.90;;;17.40;80.20;;;;;;5052256;28;20053;-78
2023/06/30 03:55:58;;;;;;;7.18;2.70;;;17.40;80.20;;;;;;5052193;28;20035;-79
2023/06/30 03:58:24;;;;;;;9.35;3.17;;;17.40;80.00;;;;;;5035946;28;20033;-78
2023/06/30 04:00:49;;;;;;;6.13;2.78;;;17.40;79.90;;;;;;5053066;28;20026;-79
2023/06/30 04:03:15;;;;;;;6.45;2.63;;;17.40;79.80;;;;;;5052138;28;20501;-78
2023/06/30 04:05:40;;;;;;;7.10;2.60;;;17.40;79.70;;;;;;5052021;28;20093;-79
2023/06/30 04:08:06;;;;;;;5.80;2.88;;;17.40;79.60;;;;;;5035614;28;20051;-78
2023/06/30 04:10:32;;;;;;;6.57;2.72;;;17.40;79.50;;;;;;5052778;28;20062;-78
2023/06/30 04:12:58;;;;;;;9.32;2.95;;;17.30;79.60;;;;;;5052113;28;20052;-78
2023/06/30 04:15:23;;;;;;;5.88;2.92;;;17.20;79.70;;;;;;5035574;28;20037;-78
2023/06/30 04:17:49;;;;;;;5.47;2.95;;;17.20;80.00;;;;;;5051879;28;20035;-77
2023/06/30 04:20:15;;;;;;;7.80;3.30;;;17.10;80.20;;;;;;5035649;28;20026;-77
2023/06/30 04:22:41;;;;;;;6.57;2.90;;;17.10;80.20;;;;;;5052061;28;20018;-77
2023/06/30 04:25:07;;;;;;;6.22;3.22;;;17.10;80.20;;;;;;5052902;28;20025;-78
2023/06/30 04:27:33;;;;;;;7.18;3.00;;;17.10;80.30;;;;;;5051898;28;20034;-77
2023/06/30 04:29:58;;;;;;;6.93;3.10;;;17.00;80.60;;;;;;5035407;28;20100;-78
2023/06/30 04:32:24;;;;;;;4.70;2.92;;;17.00;80.60;;;;;;5051818;28;20036;-77
2023/06/30 04:34:50;;;;;;;9.93;3.50;;;17.00;80.60;;;;;;5035303;28;20040;-78
2023/06/30 04:37:15;;;;;;;6.63;3.05;;;17.00;80.70;;;;;;5037349;28;20038;-77
2023/06/30 04:39:42;;;;;;;5.88;3.40;;;16.90;80.80;;;;;;5056523;28;20042;-77
2023/06/30 04:42:08;;;;;;;7.90;3.50;;;17.00;81.00;;;;;;5056430;28;20044;-78
2023/06/30 04:44:33;;;;;;;6.40;3.10;;;17.00;81.10;;;;;;5055413;28;20104;-77
2023/06/30 04:47:00;;;;;;;10.38;3.90;;;17.00;81.00;;;;;;5055380;28;20067;-77
2023/06/30 04:49:26;;;;;;;7.20;3.58;;;17.00;81.10;;;;;;5039124;28;20029;-77
2023/06/30 04:51:52;;;;;;;6.95;3.80;;;17.00;81.10;;;;;;5055359;28;20040;-78
2023/06/30 04:54:19;;;;;;;9.10;4.22;;;17.00;81.10;;;;;;5055381;28;20048;-78
2023/06/30 04:56:44;;;;;;;6.32;3.90;;;17.00;81.10;;;;;;5055370;28;20052;-79
2023/06/30 04:59:10;;;;;;;6.93;3.67;;;17.00;81.30;;;;;;5055049;28;20041;-78
2023/06/30 05:01:36;;;;;;;8.07;4.10;;;16.90;81.40;;;;;;5055340;28;20025;-78
2023/06/30 05:04:01;;;;;;;6.53;3.45;;;16.90;81.70;;;;;;5038604;28;20029;-78
2023/06/30 05:06:27;;;;;;;7.65;3.75;;;16.90;81.90;;;;;;5055084;28;20018;-78
2023/06/30 05:08:52;;;;;;;7.45;3.60;;;16.90;82.00;;;;;;5055813;28;20049;-78
2023/06/30 05:11:18;;;;;;;6.90;3.70;;;17.00;82.10;;;;;;5055122;28;20053;-78
2023/06/30 05:13:44;;;;;;;9.30;3.63;;;17.00;82.00;;;;;;5054849;28;20057;-78
2023/06/30 05:16:11;;;;;;;6.43;3.38;;;17.10;82.10;;;;;;5038340;28;20037;-78
2023/06/30 05:18:37;;;;;;;7.95;3.65;;;17.10;82.20;;;;;;5071382;28;20021;-78
2023/06/30 05:21:05;;;;;;;10.50;4.00;;;17.10;82.20;;;;;;5071404;28;20040;-78
2023/06/30 05:23:31;;;;;;;9.02;3.78;;;17.10;82.20;;;;;;5054955;28;20022;-78
2023/06/30 05:25:58;;;;;;;8.43;3.72;;;17.20;82.20;;;;;;5054766;28;20057;-79
2023/06/30 05:28:24;;;;;;;7.25;3.38;;;17.20;82.00;;;;;;5054793;28;20026;-78
2023/06/30 05:30:50;;;;;;;8.77;3.75;;;17.20;81.80;;;;;;5054668;28;20033;-78
2023/06/30 05:33:15;;;;;;;7.88;3.35;;;17.20;82.00;;;;;;5037918;28;20107;-78
2023/06/30 05:35:41;;;;;;;6.18;3.22;;;17.30;82.20;;;;;;5054477;28;20025;-77
2023/06/30 05:38:07;;;;;;;6.28;3.33;;;17.30;82.10;;;;;;5055402;28;20079;-78
2023/06/30 05:40:32;;;;;;;10.23;3.83;;;17.30;82.20;;;;;;5037982;28;20025;-78
2023/06/30 05:42:58;;;;;;;6.55;3.60;;;17.40;83.10;;;;;;5054502;28;20021;-78
2023/06/30 05:45:24;;;;;;;9.15;3.90;;;17.40;82.50;;;;;;5055325;28;20030;-78
2023/06/30 05:47:50;;;;;;;7.40;3.92;;;17.50;82.30;;;;;;5054023;28;20060;-78
2023/06/30 05:50:17;;;;;;;8.50;3.65;;;17.50;82.40;;;;;;5037781;28;20061;-78
2023/06/30 05:52:42;;;;;;;7.43;3.58;;;17.50;82.40;;;;;;5054095;28;20039;-78
2023/06/30 05:55:08;;;;;;;7.20;3.63;;;17.60;82.50;;;;;;5070879;28;20022;-78
2023/06/30 05:57:34;;;;;;;7.10;3.00;;;17.60;82.20;;;;;;5054062;28;20029;-78
2023/06/30 05:59:59;;;;;;;8.13;3.50;;;17.70;82.10;;;;;;5054153;28;20033;-78
2023/06/30 06:02:26;;;;;;;6.30;3.28;;;17.80;81.90;;;;;;5054028;28;20056;-78
2023/06/30 06:04:51;;;;;;;4.93;3.10;;;17.80;81.60;;;;;;5054101;28;20038;-79
2023/06/30 06:07:17;;;;;;;6.60;2.95;;;17.90;81.50;;;;;;5054064;28;20036;-79
2023/06/30 06:09:43;;;;;;;4.88;2.78;;;17.90;81.00;;;;;;5053773;28;20053;-79
2023/06/30 06:12:09;;;;;;;6.80;3.08;;;17.90;81.10;;;;;;5053884;28;20022;-79
2023/06/30 06:14:34;;;;;;;6.72;3.00;;;17.90;82.00;;;;;;5037437;28;20030;-79
2023/06/30 06:17:00;;;;;;;7.30;3.38;;;18.00;81.10;;;;;;5053810;28;20025;-78
2023/06/30 06:19:26;;;;;;;7.03;3.35;;;18.10;80.90;;;;;;5053661;28;20025;-79
2023/06/30 06:21:51;;;;;;;4.22;2.47;;;18.10;80.70;;;;;;5053654;28;20041;-79
2023/06/30 06:24:17;;;;;;;8.13;2.90;;;18.20;80.10;;;;;;5053857;28;20033;-79
2023/06/30 06:26:43;;;;;;;5.40;3.10;;;18.20;80.10;;;;;;5053513;28;20116;-79
2023/06/30 06:29:08;;;;;;;8.02;3.10;;;18.30;80.20;;;;;;5053495;28;20028;-79
2023/06/30 06:31:34;;;;;;;5.60;2.70;;;18.40;80.30;;;;;;5053546;28;20022;-78
2023/06/30 06:33:59;;;;;;;7.47;2.50;;;18.40;80.70;;;;;;5036868;28;20401;-79
2023/06/30 06:36:25;;;;;;;6.72;2.90;;;18.50;79.40;;;;;;5053366;28;20033;-80
2023/06/30 06:38:50;;;;;;;8.82;3.10;;;18.50;79.20;;;;;;5036807;28;20029;-79
2023/06/30 06:41:16;;;;;;;7.78;3.30;;;18.60;79.10;;;;;;5053366;28;20129;-78
2023/06/30 06:43:42;;;;;;;6.60;2.80;;;18.60;78.70;;;;;;5036884;28;20029;-78
2023/06/30 06:46:08;;;;;;;5.72;2.30;;;18.60;78.40;;;;;;5053280;28;20060;-78
2023/06/30 06:48:33;;;;;;;5.95;2.50;;;18.60;78.10;;;;;;5053195;28;20388;-78
2023/06/30 06:51:01;;;;;;;5.43;2.50;;;18.60;77.80;;;;;;5053121;28;20048;-78
2023/06/30 06:53:33;;;;;;;6.03;2.40;;;18.70;77.60;;;;;;5069694;28;20022;-78
2023/06/30 06:55:59;;;;;;;5.53;2.00;;;18.70;77.40;;;;;;5053124;28;20033;-78
2023/06/30 06:58:28;;;;;;;3.95;2.15;;;18.70;77.20;;;;;;5052773;28;20113;-78
2023/06/30 07:00:54;;;;;;;5.35;2.28;;;18.70;76.70;;;;;;5052774;28;20022;-78
2023/06/30 07:03:20;;;;;;;4.50;2.33;;;18.80;76.70;;;;;;5052924;28;20036;-78
2023/06/30 07:05:45;;;;;;;5.68;2.08;;;18.80;76.90;;;;;;5053086;28;20036;-78
2023/06/30 07:08:12;;;;;;;6.15;1.80;;;18.90;76.70;;;;;;5052918;28;20029;-77
2023/06/30 07:10:39;;;;;;;4.80;1.70;;;18.90;76.30;;;;;;5069228;28;20049;-78
2023/06/30 07:13:04;;;;;;;3.10;1.30;;;19.00;76.60;;;;;;5052706;28;20030;-78
2023/06/30 07:15:30;;;;;;;5.07;1.85;;;19.10;75.40;;;;;;5036177;28;20044;-77
2023/06/30 07:17:56;;;;;;;5.05;1.52;;;19.10;75.40;;;;;;5053523;28;20038;-78
2023/06/30 07:20:25;;;;;;;3.75;1.40;;;19.10;74.50;;;;;;5053590;28;20037;-78
2023/06/30 07:22:53;;;;;;;2.75;1.25;;;19.10;74.10;;;;;;5053159;28;20025;-78
2023/06/30 07:25:18;;;;;;;3.33;1.30;;;19.20;73.00;;;;;;5069184;28;20021;-78
2023/06/30 07:27:49;;;;;;;2.88;1.48;;;19.20;71.80;;;;;;5036093;28;20024;-78
2023/06/30 07:30:16;;;;;;;2.83;1.13;;;19.20;70.90;;;;;;5069090;28;20030;-78
2023/06/30 07:32:41;;;;;;;2.08;1.10;;;19.30;71.30;;;;;;5052538;28;20021;-78
2023/06/30 07:35:07;;;;;;;2.92;1.13;;;19.30;71.20;;;;;;5052267;28;20459;-78
2023/06/30 07:37:33;;;;;;;2.80;1.10;;;19.40;71.10;;;;;;5052291;28;20049;-78
2023/06/30 07:39:58;;;;;;;1.60;1.17;;;19.50;71.80;;;;;;5052574;28;20029;-78
2023/06/30 07:42:24;;;;;;;2.88;1.20;;;19.50;70.80;;;;;;5052476;28;20037;-78
2023/06/30 07:44:50;;;;;;;2.92;1.30;;;19.60;70.30;;;;;;5052329;28;20030;-77
2023/06/30 07:47:18;;;;;;;5.78;1.10;;;19.70;69.80;;;;;;5053214;28;20083;-77
2023/06/30 07:49:44;;;;;;;4.00;1.00;;;19.70;69.00;;;;;;5035818;28;20022;-78
2023/06/30 07:52:10;;;;;;;2.50;1.20;;;19.70;67.90;;;;;;5053156;28;20108;-78
2023/06/30 07:54:36;;;;;;;4.85;1.27;;;19.80;68.50;;;;;;5053125;28;20022;-78
2023/06/30 07:57:01;;;;;;;1.38;1.27;;;19.80;68.10;;;;;;5052153;28;20049;-77
2023/06/30 07:59:27;;;;;;;2.22;1.17;;;19.90;68.70;;;;;;5052098;28;20055;-78
2023/06/30 08:01:53;;;;;;;1.55;1.17;;;20.00;69.10;;;;;;5052078;28;20032;-78
2023/06/30 08:04:21;;;;;;;2.20;1.25;;;20.10;68.50;;;;;;5053013;28;20037;-78
2023/06/30 08:06:47;;;;;;;3.47;1.50;;;20.20;68.30;;;;;;5052133;28;20022;-78
2023/06/30 08:09:13;;;;;;;2.72;1.50;;;20.20;67.50;;;;;;5051798;28;20121;-78
2023/06/30 08:11:39;;;;;;;5.25;1.40;;;20.20;67.10;;;;;;5055119;28;20028;-78
2023/06/30 08:14:06;;;;;;;1.88;1.27;;;20.20;67.40;;;;;;5056129;28;20417;-78
2023/06/30 08:16:32;;;;;;;3.80;1.63;;;20.30;67.00;;;;;;5056074;28;20094;-78
2023/06/30 08:18:57;;;;;;;2.80;1.38;;;20.30;66.50;;;;;;5056019;28;20026;-77
2023/06/30 08:21:23;;;;;;;3.33;1.50;;;20.30;66.00;;;;;;5055975;28;20033;-77
2023/06/30 08:23:49;;;;;;;3.80;1.10;;;20.40;66.70;;;;;;5055922;28;20504;-77
2023/06/30 08:26:15;;;;;;;1.85;1.25;;;20.40;65.70;;;;;;5055811;28;20022;-78
2023/06/30 08:28:41;;;;;;;2.80;1.17;;;20.40;65.90;;;;;;5055857;28;20033;-77
2023/06/30 08:31:06;;;;;;;4.72;1.38;;;20.40;64.30;;;;;;5055936;28;20033;-77
2023/06/30 08:33:32;;;;;;;2.38;1.45;;;20.40;64.90;;;;;;5055694;28;20049;-77
2023/06/30 08:35:58;;;;;;;2.78;1.20;;;20.40;64.70;;;;;;5055632;28;20025;-78
2023/06/30 08:38:24;;;;;;;4.63;1.10;;;20.40;64.10;;;;;;5039216;28;20041;-78
2023/06/30 08:40:49;;;;;;;2.08;1.00;;;20.50;65.00;;;;;;5055681;28;20381;-77
2023/06/30 08:43:15;;;;;;;2.80;1.48;;;20.50;65.30;;;;;;5055536;28;20037;-77
2023/06/30 08:45:44;;;;;;;4.40;1.52;;;20.60;64.60;;;;;;5056458;28;20083;-77
2023/06/30 08:48:12;;;;;;;1.55;1.23;;;20.50;64.00;;;;;;5056441;28;20030;-77
2023/06/30 08:50:38;;;;;;;2.25;1.10;;;20.60;63.90;;;;;;5056392;28;20025;-77
2023/06/30 08:53:04;;;;;;;4.10;1.35;;;20.60;64.70;;;;;;5055355;28;20033;-77
2023/06/30 08:55:30;;;;;;;3.00;1.30;;;20.70;63.80;;;;;;5055256;28;20053;-77
2023/06/30 08:57:57;;;;;;;2.60;1.40;;;20.80;63.10;;;;;;5056138;28;20029;-77
2023/06/30 09:00:26;;;;;;;3.28;1.23;;;20.90;63.50;;;;;;5055169;28;20026;-78
2023/06/30 09:02:55;;;;;;;3.15;1.30;;;20.90;62.80;;;;;;5071874;28;20026;-77
2023/06/30 09:05:22;;;;;;;2.05;1.25;;;21.00;62.20;;;;;;5071687;28;20048;-77
2023/06/30 09:07:56;;;;;;;2.20;1.42;;;21.00;61.30;;;;;;5055332;28;20034;-78
2023/06/30 09:10:25;;;;;;;4.13;1.50;;;21.00;60.30;;;;;;5071480;28;20084;-78
2023/06/30 09:12:57;;;;;;;3.33;1.38;;;21.00;60.70;;;;;;5054953;28;20018;-77
2023/06/30 09:15:24;;;;;;;3.87;1.33;;;21.00;61.70;;;;;;5071752;28;20053;-77
2023/06/30 09:17:54;;;;;;;4.40;1.50;;;21.10;59.60;;;;;;5055816;28;20085;-79
2023/06/30 09:20:21;;;;;;;1.92;1.20;;;21.00;59.80;;;;;;5055953;28;20026;-79
2023/06/30 09:22:46;;;;;;;3.15;1.35;;;21.20;61.00;;;;;;5054087;28;20037;-78
2023/06/30 09:25:35;;;;;;;2.53;1.20;;;21.30;61.30;;;;;;5055696;28;20032;-78
2023/06/30 09:28:11;;;;;;;2.80;1.50;;;21.40;58.40;;;;;;5049471;28;20037;-78
2023/06/30 09:30:45;;;;;;;2.75;1.33;;;21.40;59.40;;;;;;5055650;28;20077;-78
2023/06/30 09:33:13;;;;;;;2.58;1.40;;;21.50;60.20;;;;;;5055589;28;20033;-78
2023/06/30 09:35:41;;;;;;;3.38;1.30;;;21.60;60.00;;;;;;5055592;28;20030;-78
2023/06/30 09:38:11;;;;;;;2.03;1.40;;;21.70;60.10;;;;;;5071033;28;20098;-79
2023/06/30 09:40:36;;;;;;;3.15;1.45;;;21.70;59.00;;;;;;5054431;28;20025;-79
2023/06/30 09:43:02;;;;;;;3.22;1.25;;;21.80;59.30;;;;;;5054521;28;20037;-79
2023/06/30 09:45:28;;;;;;;4.80;1.67;;;21.80;59.50;;;;;;5037901;28;20393;-79
2023/06/30 09:47:54;;;;;;;3.25;1.30;;;21.80;58.90;;;;;;5054366;28;20032;-80
2023/06/30 09:50:32;;;;;;;3.38;1.83;;;21.80;59.70;;;;;;5070973;28;20052;-81
2023/06/30 09:52:58;;;;;;;3.08;1.70;;;21.80;59.40;;;;;;5037783;28;20033;-80
2023/06/30 09:55:24;;;;;;;2.30;1.65;;;21.70;59.30;;;;;;5054185;28;20048;-80
2023/06/30 09:57:52;;;;;;;5.22;2.20;;;21.60;59.70;;;;;;5054094;28;20049;-79
2023/06/30 10:00:19;;;;;;;2.78;1.70;;;21.30;59.80;;;;;;5070754;28;20021;-78
2023/06/30 10:02:45;;;;;;;3.45;1.60;;;21.10;58.70;;;;;;5054196;28;20022;-78
2023/06/30 10:05:11;;;;;;;4.15;1.45;;;21.10;61.20;;;;;;5054987;28;20492;-79
2023/06/30 10:07:40;;;;;;;2.22;1.65;;;21.20;62.10;;;;;;5054965;28;20022;-78
2023/06/30 10:10:09;;;;;;;4.82;1.80;;;21.30;61.60;;;;;;5070312;28;20045;-78
2023/06/30 10:12:37;;;;;;;4.65;1.88;;;21.40;60.50;;;;;;5070481;28;20045;-78
2023/06/30 10:15:05;;;;;;;3.10;1.77;;;21.40;59.40;;;;;;5070571;28;20477;-79
2023/06/30 10:17:32;;;;;;;4.30;1.98;;;21.40;59.30;;;;;;5054582;28;20056;-79
2023/06/30 10:20:02;;;;;;;2.75;1.50;;;21.50;59.40;;;;;;5053649;28;20033;-78
2023/06/30 10:22:27;;;;;;;2.38;1.58;;;21.60;60.00;;;;;;5070542;28;20021;-78
2023/06/30 10:24:55;;;;;;;2.60;1.70;;;21.70;59.60;;;;;;5053654;28;20056;-77
2023/06/30 10:27:23;;;;;;;5.00;2.10;;;21.80;58.80;;;;;;5054441;28;20022;-78
2023/06/30 10:29:49;;;;;;;2.10;1.63;;;21.80;58.00;;;;;;5054517;28;20093;-79
2023/06/30 10:32:19;;;;;;;4.03;1.70;;;21.80;58.70;;;;;;5053432;28;20026;-78
2023/06/30 10:34:47;;;;;;;4.32;2.10;;;21.90;58.50;;;;;;5054413;28;20040;-78
2023/06/30 10:37:13;;;;;;;3.08;2.08;;;21.90;58.30;;;;;;5053558;28;20036;-79
2023/06/30 10:39:39;;;;;;;3.08;1.90;;;22.00;58.10;;;;;;5053307;28;20112;-79
2023/06/30 10:42:06;;;;;;;5.45;2.63;;;22.20;57.80;;;;;;5054251;28;20048;-79
2023/06/30 10:44:39;;;;;;;3.00;2.00;;;22.20;56.60;;;;;;5036955;28;20017;-79
2023/06/30 10:47:05;;;;;;;4.43;2.50;;;22.00;54.60;;;;;;5069944;28;20018;-79
2023/06/30 10:49:35;;;;;;;3.33;2.47;;;21.90;55.70;;;;;;5069894;28;20072;-79
2023/06/30 10:52:11;;;;;;;5.72;2.35;;;21.90;57.20;;;;;;5054157;28;20065;-79
2023/06/30 10:54:38;;;;;;;3.88;2.70;;;21.90;57.20;;;;;;5054111;28;20052;-78
2023/06/30 10:57:31;;;;;;;4.20;2.40;;;22.00;56.60;;;;;;5053045;28;20049;-78
2023/06/30 11:00:14;;;;;;;;;;;22.10;55.80;;;;;;5051312;28;20121;-79
2023/06/30 11:02:57;;;;;;;5.65;2.40;;;22.10;57.50;;;;;;5069419;28;19976;-78
2023/06/30 11:05:22;;;;;;;4.63;2.88;;;22.10;57.40;;;;;;5069526;28;20033;-78
2023/06/30 11:07:53;;;;;;;4.63;2.50;;;22.20;57.70;;;;;;5053842;28;20036;-78
2023/06/30 11:10:27;;;;;;;4.85;2.70;;;22.30;58.20;;;;;;5053647;28;20051;-78
2023/06/30 11:12:57;;;;;;;3.28;2.50;;;22.50;58.50;;;;;;5053068;28;20029;-79
2023/06/30 11:15:43;;;;;;;4.00;3.03;;;22.60;58.00;;;;;;5069351;28;20025;-78
2023/06/30 11:18:14;;;;;;;3.20;2.28;;;22.60;56.00;;;;;;5053751;28;20079;-78
2023/06/30 11:20:57;;;;;;;4.50;2.50;;;22.50;55.60;;;;;;5069308;28;20022;-78
2023/06/30 11:23:22;;;;;;;3.58;2.63;;;22.50;55.00;;;;;;5053608;28;20082;-78
2023/06/30 11:25:48;;;;;;;5.28;2.72;;;22.30;52.30;;;;;;5053518;28;20025;-79
2023/06/30 11:28:14;;;;;;;3.78;2.40;;;22.10;53.90;;;;;;5036115;28;20030;-79
2023/06/30 11:30:41;;;;;;;4.13;2.20;;;22.10;56.40;;;;;;5052487;28;20065;-78
2023/06/30 11:33:07;;;;;;;3.83;2.30;;;22.00;57.20;;;;;;5053446;28;20037;-78
2023/06/30 11:35:36;;;;;;;4.78;2.47;;;22.10;55.50;;;;;;5068860;28;20036;-78
2023/06/30 11:38:02;;;;;;;6.32;2.60;;;22.00;57.70;;;;;;5053227;28;20037;-78
2023/06/30 11:40:29;;;;;;;4.50;2.35;;;22.00;56.50;;;;;;5053339;28;20037;-79
2023/06/30 11:42:55;;;;;;;3.53;2.22;;;22.10;58.30;;;;;;5052265;28;20068;-79
2023/06/30 11:45:27;;;;;;;2.75;1.80;;;22.30;58.90;;;;;;5051789;28;20021;-79
2023/06/30 11:47:54;;;;;;;3.50;2.30;;;22.50;58.30;;;;;;5068975;28;20025;-79
2023/06/30 11:50:21;;;;;;;9.40;4.40;;;22.70;59.30;;;;;;5053211;28;20026;-79
2023/06/30 11:52:51;;;;;;;5.43;2.58;;;22.70;57.70;;;;;;5053184;28;20093;-78
2023/06/30 11:55:17;;;;;;;4.63;1.92;;;22.70;57.20;;;;;;5052105;28;20029;-78
2023/06/30 11:57:46;;;;;;;4.03;2.80;;;22.70;56.40;;;;;;5052200;28;20021;-78
2023/06/30 12:00:17;;;;;;;3.80;2.85;;;22.80;59.80;;;;;;5068761;28;20017;-79
2023/06/30 12:02:48;;;;;;;5.15;2.55;;;22.70;54.40;;;;;;5053112;28;20029;-79
2023/06/30 12:05:17;;;;;;;4.07;2.28;;;22.70;54.70;;;;;;5068803;28;20049;-79
2023/06/30 12:07:46;;;;;;;4.90;2.50;;;22.70;53.60;;;;;;5068805;28;20033;-79
2023/06/30 12:10:12;;;;;;;4.68;2.50;;;22.80;54.30;;;;;;5068516;28;20109;-79
2023/06/30 12:12:39;;;;;;;4.53;2.30;;;22.90;55.00;;;;;;5052145;28;20057;-77
2023/06/30 12:15:08;;;;;;;3.90;2.30;;;22.90;54.70;;;;;;5068672;28;20104;-78
2023/06/30 12:17:43;;;;;;;5.60;2.10;;;23.00;54.60;;;;;;5068536;28;20026;-78
2023/06/30 12:20:10;;;;;;;3.22;2.33;;;23.00;54.60;;;;;;5051986;28;20022;-78
2023/06/30 12:22:41;;;;;;;5.25;2.85;;;23.10;55.10;;;;;;5035670;28;20029;-78
2023/06/30 12:25:08;;;;;;;5.15;2.60;;;23.10;55.40;;;;;;5068599;28;20025;-78
2023/06/30 12:27:35;;;;;;;3.55;2.38;;;23.20;55.20;;;;;;5051793;28;20112;-79
2023/06/30 12:30:01;;;;;;;5.40;2.88;;;23.10;55.50;;;;;;5052894;28;20022;-78
2023/06/30 12:32:28;;;;;;;6.00;2.50;;;23.10;55.60;;;;;;5051859;28;20098;-80
2023/06/30 12:35:00;;;;;;;3.70;2.20;;;23.10;56.50;;;;;;5068288;28;20026;-79
2023/06/30 12:37:29;;;;;;;4.60;2.15;;;23.10;55.00;;;;;;5052071;28;20026;-78
2023/06/30 12:40:01;;;;;;;4.88;2.15;;;23.30;56.30;;;;;;5051796;28;20029;-78
2023/06/30 12:42:29;;;;;;;6.13;2.83;;;23.30;54.40;;;;;;5068433;28;20029;-78
2023/06/30 12:44:55;;;;;;;4.13;2.60;;;23.20;53.10;;;;;;5051779;28;20030;-77
2023/06/30 12:47:21;;;;;;;4.07;2.60;;;23.10;55.70;;;;;;5052689;28;20017;-78
2023/06/30 12:49:47;;;;;;;4.32;3.03;;;23.10;57.20;;;;;;5051624;28;20038;-78
2023/06/30 12:52:13;;;;;;;4.35;2.63;;;23.00;55.50;;;;;;5051770;28;20053;-77
2023/06/30 12:54:38;;;;;;;3.45;2.30;;;23.00;53.90;;;;;;5052602;28;20022;-78